Aérodrome :
LOGIN :

S'inscrire | Disclaimer

   EN    FR    IT 

 










Légende :    VFR   VFR Marginal   IFR   IFR Intensif   IFR Très Intensif
Visi : 
Plafond : 
>= 8 km
>= 3000ft
5 à 8 km
1000 à 3000 ft
1500m à 5 km
500 à 1000 ft
800 à 1500m
200 à 500 ft
< 800m
< 200 ft
Symboles :   Orages  Brouillard  Fortes neiges  Fortes précipitations  Vent > 20 kt
SIGMETs :   Divers  Orages  Givrage  Turbulence  Onde Orograph.  Cendres Volcan.






- Altitude de l'aérodrome : 755 ft
- Code IATA : DRS


EDDC - Dresden Klotzsche

DERNIER METAR :
  • 231520Z 30006KT 270V330 6000 -DZ SCT007 OVC018 04/04 Q1032 NOSIG

METARs EXPIRÉS :
  • 231450Z 30006KT 260V320 8000 -DZ SCT006 OVC009 04/04 Q1032 NOSIG
  • 231420Z 31007KT 280V340 9000 -DZ SCT006 OVC008 04/04 Q1032 NOSIG
  • 231350Z 30007KT 9999 BKN008 BKN023 04/04 Q1032 NOSIG
  • 231320Z 30007KT 270V330 9999 BKN006 BKN023 04/03 Q1032 TEMPO 4000 -DZ BKN004
  • 231250Z 30009KT 9999 BKN006 BKN022 04/03 Q1032 TEMPO 4000 -DZ BKN004

TAF TAF EDDC
Valide du 23 à 12h jusqu'au 24 à 12h UTC


231100Z 2312/2412 30006KT 6000 BKN006
TEMPO 2312/2318 4000 -DZRA OVC004
BECMG 2318/2321 24003KT 3500 -DZ BR OVC004
TEMPO 2320/2407 1200 BR OVC001
BECMG 2408/2411 6000 BKN007



MET'MAP, la Météo Aéronautique d'un coup d'oeil ! - Copyright ORBIFLY Décembre 2007 - Disclaimer

ORBIFLY MET'MAP TEAM :

Programmation & Développement : Alexandra Zaïnal
Sur une idée originale de : Baudouin d'Aumeries
Assistance à la programmation : Marc-Olivier Méhu
Soutien technique & logistique : Manuel Goepfert

Contact : metmap@orbifly.com




SOURCES & CREDITS :

   NOAA